sensor_id;sensor_type;location;lat;lon;timestamp;P1;durP1;ratioP1;P2;durP2;ratioP2
75787;SDS011;64406;50.024;14.492;2024-02-14T00:00:11;15.20;;;7.30;;
75787;SDS011;64406;50.024;14.492;2024-02-14T00:03:00;14.60;;;6.72;;
75787;SDS011;64406;50.024;14.492;2024-02-14T00:05:27;14.43;;;7.03;;
75787;SDS011;64406;50.024;14.492;2024-02-14T00:07:54;13.65;;;6.95;;
75787;SDS011;64406;50.024;14.492;2024-02-14T00:10:19;12.98;;;6.40;;
75787;SDS011;64406;50.024;14.492;2024-02-14T00:12:45;11.50;;;6.22;;
75787;SDS011;64406;50.024;14.492;2024-02-14T00:15:12;10.60;;;6.60;;
75787;SDS011;64406;50.024;14.492;2024-02-14T00:17:38;11.63;;;5.97;;
75787;SDS011;64406;50.024;14.492;2024-02-14T00:20:04;11.97;;;7.37;;
75787;SDS011;64406;50.024;14.492;2024-02-14T00:22:31;14.15;;;7.50;;
75787;SDS011;64406;50.024;14.492;2024-02-14T00:24:57;13.77;;;6.78;;
75787;SDS011;64406;50.024;14.492;2024-02-14T00:27:22;9.02;;;6.18;;
75787;SDS011;64406;50.024;14.492;2024-02-14T00:29:48;13.32;;;6.38;;
75787;SDS011;64406;50.024;14.492;2024-02-14T00:32:13;17.87;;;7.27;;
75787;SDS011;64406;50.024;14.492;2024-02-14T00:34:39;10.45;;;6.50;;
75787;SDS011;64406;50.024;14.492;2024-02-14T00:37:04;12.15;;;6.28;;
75787;SDS011;64406;50.024;14.492;2024-02-14T00:39:30;13.43;;;7.17;;
75787;SDS011;64406;50.024;14.492;2024-02-14T00:41:56;12.47;;;6.87;;
75787;SDS011;64406;50.024;14.492;2024-02-14T00:44:22;11.40;;;6.23;;
75787;SDS011;64406;50.024;14.492;2024-02-14T00:46:47;11.00;;;6.30;;
75787;SDS011;64406;50.024;14.492;2024-02-14T00:49:16;11.75;;;6.78;;
75787;SDS011;64406;50.024;14.492;2024-02-14T00:51:41;9.90;;;6.28;;
75787;SDS011;64406;50.024;14.492;2024-02-14T00:54:07;12.87;;;6.43;;
75787;SDS011;64406;50.024;14.492;2024-02-14T00:56:33;10.00;;;6.13;;
75787;SDS011;64406;50.024;14.492;2024-02-14T00:58:59;11.97;;;6.17;;
75787;SDS011;64406;50.024;14.492;2024-02-14T01:01:25;10.33;;;6.23;;
75787;SDS011;64406;50.024;14.492;2024-02-14T01:03:51;11.40;;;5.70;;
75787;SDS011;64406;50.024;14.492;2024-02-14T01:06:16;10.13;;;6.15;;
75787;SDS011;64406;50.024;14.492;2024-02-14T01:08:43;16.33;;;7.73;;
75787;SDS011;64406;50.024;14.492;2024-02-14T01:11:09;15.23;;;6.40;;
75787;SDS011;64406;50.024;14.492;2024-02-14T01:13:35;13.50;;;6.25;;
75787;SDS011;64406;50.024;14.492;2024-02-14T01:16:01;11.10;;;6.13;;
75787;SDS011;64406;50.024;14.492;2024-02-14T01:18:29;13.60;;;6.80;;
75787;SDS011;64406;50.024;14.492;2024-02-14T01:20:55;12.70;;;6.30;;
75787;SDS011;64406;50.024;14.492;2024-02-14T01:23:21;12.07;;;6.68;;
75787;SDS011;64406;50.024;14.492;2024-02-14T01:25:46;12.48;;;6.63;;
75787;SDS011;64406;50.024;14.492;2024-02-14T01:28:12;12.60;;;6.00;;
75787;SDS011;64406;50.024;14.492;2024-02-14T01:30:37;12.05;;;5.63;;
75787;SDS011;64406;50.024;14.492;2024-02-14T01:33:03;13.15;;;6.15;;
75787;SDS011;64406;50.024;14.492;2024-02-14T01:35:29;10.88;;;5.95;;
75787;SDS011;64406;50.024;14.492;2024-02-14T01:37:55;13.75;;;5.55;;
75787;SDS011;64406;50.024;14.492;2024-02-14T01:40:21;14.50;;;6.65;;
75787;SDS011;64406;50.024;14.492;2024-02-14T01:42:47;10.15;;;6.47;;
75787;SDS011;64406;50.024;14.492;2024-02-14T01:45:12;15.82;;;7.18;;
75787;SDS011;64406;50.024;14.492;2024-02-14T01:47:38;9.88;;;5.72;;
75787;SDS011;64406;50.024;14.492;2024-02-14T01:50:07;11.98;;;5.45;;
75787;SDS011;64406;50.024;14.492;2024-02-14T01:52:37;11.70;;;6.20;;
75787;SDS011;64406;50.024;14.492;2024-02-14T01:55:05;8.07;;;5.28;;
75787;SDS011;64406;50.024;14.492;2024-02-14T01:57:32;8.70;;;5.75;;
75787;SDS011;64406;50.024;14.492;2024-02-14T01:59:59;11.18;;;5.65;;
75787;SDS011;64406;50.024;14.492;2024-02-14T02:02:33;11.00;;;6.45;;
75787;SDS011;64406;50.024;14.492;2024-02-14T02:05:01;11.90;;;5.78;;
75787;SDS011;64406;50.024;14.492;2024-02-14T02:07:28;14.90;;;6.68;;
75787;SDS011;64406;50.024;14.492;2024-02-14T02:09:55;9.93;;;5.28;;
75787;SDS011;64406;50.024;14.492;2024-02-14T02:12:21;8.55;;;5.55;;
75787;SDS011;64406;50.024;14.492;2024-02-14T02:14:46;13.50;;;6.47;;
75787;SDS011;64406;50.024;14.492;2024-02-14T02:17:12;13.35;;;6.10;;
75787;SDS011;64406;50.024;14.492;2024-02-14T02:19:38;11.90;;;6.28;;
75787;SDS011;64406;50.024;14.492;2024-02-14T02:22:04;8.00;;;5.28;;
75787;SDS011;64406;50.024;14.492;2024-02-14T02:24:30;9.25;;;5.60;;
75787;SDS011;64406;50.024;14.492;2024-02-14T02:26:56;8.52;;;5.65;;
75787;SDS011;64406;50.024;14.492;2024-02-14T02:29:22;8.98;;;5.28;;
75787;SDS011;64406;50.024;14.492;2024-02-14T02:31:48;9.40;;;5.80;;
75787;SDS011;64406;50.024;14.492;2024-02-14T02:34:13;10.98;;;5.53;;
75787;SDS011;64406;50.024;14.492;2024-02-14T02:36:40;13.23;;;6.53;;
75787;SDS011;64406;50.024;14.492;2024-02-14T02:39:06;11.75;;;6.50;;
75787;SDS011;64406;50.024;14.492;2024-02-14T02:41:33;14.25;;;5.28;;
75787;SDS011;64406;50.024;14.492;2024-02-14T02:43:58;9.27;;;5.70;;
75787;SDS011;64406;50.024;14.492;2024-02-14T02:46:24;9.13;;;5.15;;
75787;SDS011;64406;50.024;14.492;2024-02-14T02:48:51;11.52;;;5.72;;
75787;SDS011;64406;50.024;14.492;2024-02-14T02:51:20;10.15;;;5.18;;
75787;SDS011;64406;50.024;14.492;2024-02-14T02:53:46;17.58;;;7.43;;
75787;SDS011;64406;50.024;14.492;2024-02-14T02:56:12;9.38;;;5.40;;
75787;SDS011;64406;50.024;14.492;2024-02-14T02:58:40;14.60;;;5.75;;
75787;SDS011;64406;50.024;14.492;2024-02-14T03:01:09;10.48;;;5.28;;
75787;SDS011;64406;50.024;14.492;2024-02-14T03:03:37;10.05;;;5.72;;
75787;SDS011;64406;50.024;14.492;2024-02-14T03:06:04;14.18;;;5.57;;
75787;SDS011;64406;50.024;14.492;2024-02-14T03:08:30;12.00;;;5.22;;
75787;SDS011;64406;50.024;14.492;2024-02-14T03:10:56;7.38;;;4.80;;
75787;SDS011;64406;50.024;14.492;2024-02-14T03:13:24;10.60;;;5.70;;
75787;SDS011;64406;50.024;14.492;2024-02-14T03:15:52;6.75;;;5.68;;
75787;SDS011;64406;50.024;14.492;2024-02-14T03:18:18;9.13;;;4.93;;
75787;SDS011;64406;50.024;14.492;2024-02-14T03:20:43;9.15;;;5.43;;
75787;SDS011;64406;50.024;14.492;2024-02-14T03:23:09;9.43;;;6.03;;
75787;SDS011;64406;50.024;14.492;2024-02-14T03:25:35;8.77;;;5.50;;
75787;SDS011;64406;50.024;14.492;2024-02-14T03:28:02;8.93;;;5.43;;
75787;SDS011;64406;50.024;14.492;2024-02-14T03:30:34;11.68;;;5.90;;
75787;SDS011;64406;50.024;14.492;2024-02-14T03:33:00;8.93;;;5.60;;
75787;SDS011;64406;50.024;14.492;2024-02-14T03:35:26;12.05;;;5.70;;
75787;SDS011;64406;50.024;14.492;2024-02-14T03:37:52;11.30;;;5.57;;
75787;SDS011;64406;50.024;14.492;2024-02-14T03:40:18;10.38;;;5.38;;
75787;SDS011;64406;50.024;14.492;2024-02-14T03:42:47;10.63;;;5.25;;
75787;SDS011;64406;50.024;14.492;2024-02-14T03:45:13;9.13;;;5.18;;
75787;SDS011;64406;50.024;14.492;2024-02-14T03:47:39;9.27;;;5.13;;
75787;SDS011;64406;50.024;14.492;2024-02-14T03:50:09;10.18;;;5.43;;
75787;SDS011;64406;50.024;14.492;2024-02-14T03:52:35;10.35;;;5.55;;
75787;SDS011;64406;50.024;14.492;2024-02-14T03:55:01;10.30;;;5.55;;
75787;SDS011;64406;50.024;14.492;2024-02-14T03:57:27;7.72;;;4.82;;
75787;SDS011;64406;50.024;14.492;2024-02-14T04:00:00;9.23;;;5.03;;
75787;SDS011;64406;50.024;14.492;2024-02-14T04:02:29;8.38;;;4.97;;
75787;SDS011;64406;50.024;14.492;2024-02-14T04:04:55;9.05;;;5.00;;
75787;SDS011;64406;50.024;14.492;2024-02-14T04:07:20;12.25;;;4.88;;
75787;SDS011;64406;50.024;14.492;2024-02-14T04:09:47;13.07;;;5.18;;
75787;SDS011;64406;50.024;14.492;2024-02-14T04:12:13;11.02;;;5.15;;
75787;SDS011;64406;50.024;14.492;2024-02-14T04:14:39;9.70;;;4.75;;
75787;SDS011;64406;50.024;14.492;2024-02-14T04:17:04;7.78;;;4.88;;
75787;SDS011;64406;50.024;14.492;2024-02-14T04:19:33;9.98;;;4.90;;
75787;SDS011;64406;50.024;14.492;2024-02-14T04:21:58;9.68;;;5.30;;
75787;SDS011;64406;50.024;14.492;2024-02-14T04:24:24;15.52;;;6.25;;
75787;SDS011;64406;50.024;14.492;2024-02-14T04:26:49;11.55;;;5.40;;
75787;SDS011;64406;50.024;14.492;2024-02-14T04:29:15;9.70;;;5.32;;
75787;SDS011;64406;50.024;14.492;2024-02-14T04:31:41;11.25;;;5.22;;
75787;SDS011;64406;50.024;14.492;2024-02-14T04:34:08;9.48;;;5.53;;
75787;SDS011;64406;50.024;14.492;2024-02-14T04:36:34;10.00;;;4.82;;
75787;SDS011;64406;50.024;14.492;2024-02-14T04:39:00;11.02;;;5.18;;
75787;SDS011;64406;50.024;14.492;2024-02-14T04:41:26;10.82;;;5.60;;
75787;SDS011;64406;50.024;14.492;2024-02-14T04:43:52;10.90;;;6.53;;
75787;SDS011;64406;50.024;14.492;2024-02-14T04:46:17;10.77;;;6.13;;
75787;SDS011;64406;50.024;14.492;2024-02-14T04:48:43;15.23;;;6.13;;
75787;SDS011;64406;50.024;14.492;2024-02-14T04:51:08;10.70;;;6.00;;
75787;SDS011;64406;50.024;14.492;2024-02-14T04:53:34;10.15;;;5.65;;
75787;SDS011;64406;50.024;14.492;2024-02-14T04:56:00;14.25;;;5.78;;
75787;SDS011;64406;50.024;14.492;2024-02-14T04:58:26;12.77;;;5.95;;
75787;SDS011;64406;50.024;14.492;2024-02-14T05:00:52;12.52;;;6.85;;
75787;SDS011;64406;50.024;14.492;2024-02-14T05:03:19;8.48;;;5.30;;
75787;SDS011;64406;50.024;14.492;2024-02-14T05:05:44;10.70;;;5.45;;
75787;SDS011;64406;50.024;14.492;2024-02-14T05:08:10;11.40;;;6.00;;
75787;SDS011;64406;50.024;14.492;2024-02-14T05:10:35;10.82;;;6.25;;
75787;SDS011;64406;50.024;14.492;2024-02-14T05:13:01;11.90;;;5.97;;
75787;SDS011;64406;50.024;14.492;2024-02-14T05:15:26;11.93;;;5.57;;
75787;SDS011;64406;50.024;14.492;2024-02-14T05:17:52;14.40;;;6.20;;
75787;SDS011;64406;50.024;14.492;2024-02-14T05:20:18;15.32;;;6.47;;
75787;SDS011;64406;50.024;14.492;2024-02-14T05:22:43;8.25;;;5.07;;
75787;SDS011;64406;50.024;14.492;2024-02-14T05:25:09;12.38;;;6.55;;
75787;SDS011;64406;50.024;14.492;2024-02-14T05:27:35;11.43;;;6.70;;
75787;SDS011;64406;50.024;14.492;2024-02-14T05:30:04;10.25;;;5.45;;
75787;SDS011;64406;50.024;14.492;2024-02-14T05:32:33;11.60;;;5.30;;
75787;SDS011;64406;50.024;14.492;2024-02-14T05:34:59;9.38;;;5.35;;
75787;SDS011;64406;50.024;14.492;2024-02-14T05:37:25;9.02;;;6.07;;
75787;SDS011;64406;50.024;14.492;2024-02-14T05:39:54;9.55;;;5.63;;
75787;SDS011;64406;50.024;14.492;2024-02-14T05:42:20;10.48;;;6.80;;
75787;SDS011;64406;50.024;14.492;2024-02-14T05:44:46;10.82;;;6.13;;
75787;SDS011;64406;50.024;14.492;2024-02-14T05:47:12;13.73;;;5.97;;
75787;SDS011;64406;50.024;14.492;2024-02-14T05:49:41;10.60;;;5.90;;
75787;SDS011;64406;50.024;14.492;2024-02-14T05:52:07;10.15;;;6.00;;
75787;SDS011;64406;50.024;14.492;2024-02-14T05:54:33;13.30;;;6.75;;
75787;SDS011;64406;50.024;14.492;2024-02-14T05:56:59;12.82;;;6.72;;
75787;SDS011;64406;50.024;14.492;2024-02-14T05:59:25;12.27;;;6.55;;
75787;SDS011;64406;50.024;14.492;2024-02-14T06:01:51;11.15;;;5.90;;
75787;SDS011;64406;50.024;14.492;2024-02-14T06:04:16;12.60;;;5.88;;
75787;SDS011;64406;50.024;14.492;2024-02-14T06:06:42;10.05;;;6.07;;
75787;SDS011;64406;50.024;14.492;2024-02-14T06:09:07;12.90;;;7.00;;
75787;SDS011;64406;50.024;14.492;2024-02-14T06:11:37;11.35;;;5.95;;
75787;SDS011;64406;50.024;14.492;2024-02-14T06:14:07;14.57;;;6.40;;
75787;SDS011;64406;50.024;14.492;2024-02-14T06:16:34;11.60;;;6.32;;
75787;SDS011;64406;50.024;14.492;2024-02-14T06:19:00;8.23;;;5.80;;
75787;SDS011;64406;50.024;14.492;2024-02-14T06:21:26;11.98;;;6.13;;
75787;SDS011;64406;50.024;14.492;2024-02-14T06:23:52;10.00;;;5.95;;
75787;SDS011;64406;50.024;14.492;2024-02-14T06:26:18;11.85;;;5.82;;
75787;SDS011;64406;50.024;14.492;2024-02-14T06:28:44;10.00;;;5.28;;
75787;SDS011;64406;50.024;14.492;2024-02-14T06:31:10;9.23;;;5.78;;
75787;SDS011;64406;50.024;14.492;2024-02-14T06:33:36;10.93;;;5.65;;
75787;SDS011;64406;50.024;14.492;2024-02-14T06:36:02;8.88;;;5.75;;
75787;SDS011;64406;50.024;14.492;2024-02-14T06:38:28;11.25;;;5.45;;
75787;SDS011;64406;50.024;14.492;2024-02-14T06:40:53;12.50;;;5.80;;
75787;SDS011;64406;50.024;14.492;2024-02-14T06:43:19;12.07;;;5.30;;
75787;SDS011;64406;50.024;14.492;2024-02-14T06:45:45;13.43;;;5.97;;
75787;SDS011;64406;50.024;14.492;2024-02-14T06:48:11;8.95;;;5.55;;
75787;SDS011;64406;50.024;14.492;2024-02-14T06:50:37;13.40;;;5.15;;
75787;SDS011;64406;50.024;14.492;2024-02-14T06:53:06;8.38;;;5.68;;
75787;SDS011;64406;50.024;14.492;2024-02-14T06:55:32;9.73;;;5.07;;
75787;SDS011;64406;50.024;14.492;2024-02-14T06:58:01;10.43;;;5.60;;
75787;SDS011;64406;50.024;14.492;2024-02-14T07:00:27;11.63;;;5.80;;
75787;SDS011;64406;50.024;14.492;2024-02-14T07:02:53;10.00;;;5.13;;
75787;SDS011;64406;50.024;14.492;2024-02-14T07:05:19;12.25;;;4.80;;
75787;SDS011;64406;50.024;14.492;2024-02-14T07:07:44;9.40;;;5.68;;
75787;SDS011;64406;50.024;14.492;2024-02-14T07:10:10;8.32;;;5.15;;
75787;SDS011;64406;50.024;14.492;2024-02-14T07:12:36;9.05;;;5.70;;
75787;SDS011;64406;50.024;14.492;2024-02-14T07:15:02;9.73;;;5.35;;
75787;SDS011;64406;50.024;14.492;2024-02-14T07:17:29;13.07;;;4.88;;
75787;SDS011;64406;50.024;14.492;2024-02-14T07:19:55;13.75;;;5.25;;
75787;SDS011;64406;50.024;14.492;2024-02-14T07:22:23;7.07;;;4.40;;
75787;SDS011;64406;50.024;14.492;2024-02-14T07:24:49;9.65;;;4.95;;
75787;SDS011;64406;50.024;14.492;2024-02-14T07:27:15;11.00;;;5.95;;
75787;SDS011;64406;50.024;14.492;2024-02-14T07:29:42;10.65;;;5.30;;
75787;SDS011;64406;50.024;14.492;2024-02-14T07:32:07;12.10;;;5.90;;
75787;SDS011;64406;50.024;14.492;2024-02-14T07:34:33;9.75;;;5.25;;
75787;SDS011;64406;50.024;14.492;2024-02-14T07:36:59;11.77;;;5.75;;
75787;SDS011;64406;50.024;14.492;2024-02-14T07:39:24;9.93;;;5.53;;
75787;SDS011;64406;50.024;14.492;2024-02-14T07:41:50;6.68;;;4.45;;
75787;SDS011;64406;50.024;14.492;2024-02-14T07:44:17;7.07;;;4.60;;
75787;SDS011;64406;50.024;14.492;2024-02-14T07:46:43;11.85;;;5.20;;
75787;SDS011;64406;50.024;14.492;2024-02-14T07:49:09;9.32;;;4.93;;
75787;SDS011;64406;50.024;14.492;2024-02-14T07:51:35;8.00;;;4.90;;
75787;SDS011;64406;50.024;14.492;2024-02-14T07:54:13;7.75;;;4.68;;
75787;SDS011;64406;50.024;14.492;2024-02-14T07:56:42;11.98;;;4.95;;
75787;SDS011;64406;50.024;14.492;2024-02-14T07:59:08;8.07;;;4.45;;
75787;SDS011;64406;50.024;14.492;2024-02-14T08:01:34;10.43;;;5.53;;
75787;SDS011;64406;50.024;14.492;2024-02-14T08:04:00;8.40;;;4.93;;
75787;SDS011;64406;50.024;14.492;2024-02-14T08:06:25;9.35;;;4.93;;
75787;SDS011;64406;50.024;14.492;2024-02-14T08:08:51;9.55;;;4.70;;
75787;SDS011;64406;50.024;14.492;2024-02-14T08:11:22;9.98;;;4.75;;
75787;SDS011;64406;50.024;14.492;2024-02-14T08:13:48;9.10;;;4.72;;
75787;SDS011;64406;50.024;14.492;2024-02-14T08:16:13;8.73;;;4.72;;
75787;SDS011;64406;50.024;14.492;2024-02-14T08:18:39;13.20;;;5.47;;
75787;SDS011;64406;50.024;14.492;2024-02-14T08:21:06;8.38;;;5.07;;
75787;SDS011;64406;50.024;14.492;2024-02-14T08:23:32;8.55;;;4.18;;
75787;SDS011;64406;50.024;14.492;2024-02-14T08:25:59;8.75;;;4.90;;
75787;SDS011;64406;50.024;14.492;2024-02-14T08:28:25;8.13;;;4.80;;
75787;SDS011;64406;50.024;14.492;2024-02-14T08:30:50;13.38;;;5.25;;
75787;SDS011;64406;50.024;14.492;2024-02-14T08:33:16;9.88;;;4.47;;
75787;SDS011;64406;50.024;14.492;2024-02-14T08:35:42;11.80;;;4.78;;
75787;SDS011;64406;50.024;14.492;2024-02-14T08:38:08;10.50;;;4.05;;
75787;SDS011;64406;50.024;14.492;2024-02-14T08:40:34;9.48;;;4.00;;
75787;SDS011;64406;50.024;14.492;2024-02-14T08:43:00;6.63;;;3.78;;
75787;SDS011;64406;50.024;14.492;2024-02-14T08:45:26;8.55;;;4.03;;
75787;SDS011;64406;50.024;14.492;2024-02-14T08:47:55;11.25;;;5.35;;
75787;SDS011;64406;50.024;14.492;2024-02-14T08:50:20;10.05;;;4.35;;
75787;SDS011;64406;50.024;14.492;2024-02-14T08:52:46;7.43;;;4.10;;
75787;SDS011;64406;50.024;14.492;2024-02-14T08:55:11;7.88;;;4.43;;
75787;SDS011;64406;50.024;14.492;2024-02-14T08:57:42;6.93;;;4.20;;
75787;SDS011;64406;50.024;14.492;2024-02-14T09:00:08;9.20;;;4.68;;
75787;SDS011;64406;50.024;14.492;2024-02-14T09:02:36;9.90;;;4.80;;
75787;SDS011;64406;50.024;14.492;2024-02-14T09:05:02;11.25;;;4.55;;
75787;SDS011;64406;50.024;14.492;2024-02-14T09:07:31;9.95;;;5.10;;
75787;SDS011;64406;50.024;14.492;2024-02-14T09:09:58;7.68;;;3.75;;
75787;SDS011;64406;50.024;14.492;2024-02-14T09:12:23;12.43;;;4.72;;
75787;SDS011;64406;50.024;14.492;2024-02-14T09:14:49;11.07;;;4.78;;
75787;SDS011;64406;50.024;14.492;2024-02-14T09:17:14;9.55;;;4.63;;
75787;SDS011;64406;50.024;14.492;2024-02-14T09:19:41;6.82;;;4.10;;
75787;SDS011;64406;50.024;14.492;2024-02-14T09:22:06;8.23;;;4.60;;
75787;SDS011;64406;50.024;14.492;2024-02-14T09:24:32;10.23;;;4.55;;
75787;SDS011;64406;50.024;14.492;2024-02-14T09:26:58;8.85;;;4.40;;
75787;SDS011;64406;50.024;14.492;2024-02-14T09:29:24;11.88;;;3.92;;
75787;SDS011;64406;50.024;14.492;2024-02-14T09:31:53;7.30;;;4.28;;
75787;SDS011;64406;50.024;14.492;2024-02-14T09:34:18;10.32;;;4.30;;
75787;SDS011;64406;50.024;14.492;2024-02-14T09:36:47;6.95;;;3.65;;
75787;SDS011;64406;50.024;14.492;2024-02-14T09:39:15;6.75;;;4.03;;
75787;SDS011;64406;50.024;14.492;2024-02-14T09:41:42;9.65;;;3.72;;
75787;SDS011;64406;50.024;14.492;2024-02-14T09:44:12;12.30;;;5.07;;
75787;SDS011;64406;50.024;14.492;2024-02-14T09:46:38;8.05;;;4.18;;
75787;SDS011;64406;50.024;14.492;2024-02-14T09:49:05;8.95;;;4.10;;
75787;SDS011;64406;50.024;14.492;2024-02-14T09:51:32;10.50;;;5.03;;
75787;SDS011;64406;50.024;14.492;2024-02-14T09:53:59;7.20;;;3.97;;
75787;SDS011;64406;50.024;14.492;2024-02-14T09:56:26;7.18;;;3.63;;
75787;SDS011;64406;50.024;14.492;2024-02-14T09:58:53;8.20;;;4.82;;
75787;SDS011;64406;50.024;14.492;2024-02-14T10:01:23;7.40;;;4.25;;
75787;SDS011;64406;50.024;14.492;2024-02-14T10:03:50;6.65;;;4.03;;
75787;SDS011;64406;50.024;14.492;2024-02-14T10:06:17;7.38;;;3.65;;
75787;SDS011;64406;50.024;14.492;2024-02-14T10:08:44;6.38;;;3.60;;
75787;SDS011;64406;50.024;14.492;2024-02-14T10:11:09;6.82;;;3.90;;
75787;SDS011;64406;50.024;14.492;2024-02-14T10:13:36;8.48;;;3.83;;
75787;SDS011;64406;50.024;14.492;2024-02-14T10:16:01;9.00;;;4.18;;
75787;SDS011;64406;50.024;14.492;2024-02-14T10:18:28;5.70;;;3.60;;
75787;SDS011;64406;50.024;14.492;2024-02-14T10:20:55;7.85;;;4.35;;
75787;SDS011;64406;50.024;14.492;2024-02-14T10:23:21;7.25;;;4.25;;
75787;SDS011;64406;50.024;14.492;2024-02-14T10:25:52;6.95;;;3.90;;
75787;SDS011;64406;50.024;14.492;2024-02-14T10:28:20;6.78;;;3.60;;
75787;SDS011;64406;50.024;14.492;2024-02-14T10:30:46;6.65;;;3.47;;
75787;SDS011;64406;50.024;14.492;2024-02-14T10:33:18;10.63;;;4.30;;
75787;SDS011;64406;50.024;14.492;2024-02-14T10:35:47;7.63;;;4.17;;
75787;SDS011;64406;50.024;14.492;2024-02-14T10:38:16;8.13;;;4.28;;
75787;SDS011;64406;50.024;14.492;2024-02-14T10:40:43;10.52;;;4.68;;
75787;SDS011;64406;50.024;14.492;2024-02-14T10:43:12;7.57;;;4.20;;
75787;SDS011;64406;50.024;14.492;2024-02-14T10:45:39;8.02;;;3.95;;
75787;SDS011;64406;50.024;14.492;2024-02-14T10:48:15;6.10;;;3.75;;
75787;SDS011;64406;50.024;14.492;2024-02-14T10:50:42;6.18;;;3.90;;
75787;SDS011;64406;50.024;14.492;2024-02-14T10:53:13;9.02;;;3.78;;
75787;SDS011;64406;50.024;14.492;2024-02-14T10:55:41;7.75;;;3.28;;
75787;SDS011;64406;50.024;14.492;2024-02-14T10:58:11;6.63;;;3.88;;
75787;SDS011;64406;50.024;14.492;2024-02-14T11:00:39;6.63;;;3.88;;
75787;SDS011;64406;50.024;14.492;2024-02-14T11:03:06;7.75;;;4.18;;
75787;SDS011;64406;50.024;14.492;2024-02-14T11:05:42;6.68;;;3.55;;
75787;SDS011;64406;50.024;14.492;2024-02-14T11:08:15;8.55;;;3.60;;
75787;SDS011;64406;50.024;14.492;2024-02-14T11:10:51;7.97;;;4.40;;
75787;SDS011;64406;50.024;14.492;2024-02-14T11:13:19;9.27;;;3.83;;
75787;SDS011;64406;50.024;14.492;2024-02-14T11:15:44;10.98;;;4.30;;
75787;SDS011;64406;50.024;14.492;2024-02-14T11:18:12;11.00;;;4.03;;
75787;SDS011;64406;50.024;14.492;2024-02-14T11:20:37;7.15;;;3.72;;
75787;SDS011;64406;50.024;14.492;2024-02-14T11:23:06;8.02;;;3.70;;
75787;SDS011;64406;50.024;14.492;2024-02-14T11:25:36;6.65;;;3.53;;
75787;SDS011;64406;50.024;14.492;2024-02-14T11:28:15;5.50;;;3.67;;
75787;SDS011;64406;50.024;14.492;2024-02-14T11:30:42;6.63;;;3.22;;
75787;SDS011;64406;50.024;14.492;2024-02-14T11:35:43;7.18;;;3.75;;
75787;SDS011;64406;50.024;14.492;2024-02-14T11:38:10;8.52;;;3.88;;
75787;SDS011;64406;50.024;14.492;2024-02-14T11:40:36;8.57;;;3.58;;
75787;SDS011;64406;50.024;14.492;2024-02-14T11:43:05;9.73;;;3.97;;
75787;SDS011;64406;50.024;14.492;2024-02-14T11:45:43;11.15;;;5.40;;
75787;SDS011;64406;50.024;14.492;2024-02-14T11:48:11;7.93;;;3.40;;
75787;SDS011;64406;50.024;14.492;2024-02-14T11:50:39;7.90;;;3.22;;
75787;SDS011;64406;50.024;14.492;2024-02-14T11:53:06;5.07;;;1.90;;
75787;SDS011;64406;50.024;14.492;2024-02-14T11:55:36;3.38;;;1.67;;
75787;SDS011;64406;50.024;14.492;2024-02-14T11:58:13;2.30;;;1.20;;
75787;SDS011;64406;50.024;14.492;2024-02-14T12:00:41;2.72;;;1.17;;
75787;SDS011;64406;50.024;14.492;2024-02-14T12:03:12;4.15;;;1.15;;
75787;SDS011;64406;50.024;14.492;2024-02-14T12:05:42;3.13;;;1.58;;
75787;SDS011;64406;50.024;14.492;2024-02-14T12:08:10;1.98;;;1.30;;
75787;SDS011;64406;50.024;14.492;2024-02-14T12:10:37;2.72;;;1.20;;
75787;SDS011;64406;50.024;14.492;2024-02-14T12:13:08;3.45;;;1.77;;
75787;SDS011;64406;50.024;14.492;2024-02-14T12:15:37;2.35;;;1.10;;
75787;SDS011;64406;50.024;14.492;2024-02-14T12:18:07;1.80;;;1.30;;
75787;SDS011;64406;50.024;14.492;2024-02-14T12:20:35;3.00;;;1.40;;
75787;SDS011;64406;50.024;14.492;2024-02-14T12:23:02;3.25;;;1.80;;
75787;SDS011;64406;50.024;14.492;2024-02-14T12:25:29;4.65;;;1.25;;
75787;SDS011;64406;50.024;14.492;2024-02-14T12:27:58;3.15;;;1.40;;
75787;SDS011;64406;50.024;14.492;2024-02-14T12:30:42;2.60;;;1.05;;
75787;SDS011;64406;50.024;14.492;2024-02-14T12:33:12;5.07;;;1.40;;
75787;SDS011;64406;50.024;14.492;2024-02-14T12:35:42;3.05;;;1.30;;
75787;SDS011;64406;50.024;14.492;2024-02-14T12:38:12;2.38;;;1.20;;
75787;SDS011;64406;50.024;14.492;2024-02-14T12:40:39;3.78;;;1.73;;
75787;SDS011;64406;50.024;14.492;2024-02-14T12:43:12;2.70;;;1.63;;
75787;SDS011;64406;50.024;14.492;2024-02-14T12:45:39;3.13;;;1.33;;
75787;SDS011;64406;50.024;14.492;2024-02-14T12:48:06;3.80;;;1.40;;
75787;SDS011;64406;50.024;14.492;2024-02-14T12:50:35;2.13;;;1.40;;
75787;SDS011;64406;50.024;14.492;2024-02-14T12:53:06;3.40;;;1.45;;
75787;SDS011;64406;50.024;14.492;2024-02-14T12:55:33;2.40;;;1.13;;
75787;SDS011;64406;50.024;14.492;2024-02-14T12:57:59;2.50;;;1.55;;
75787;SDS011;64406;50.024;14.492;2024-02-14T13:00:24;3.17;;;1.27;;
75787;SDS011;64406;50.024;14.492;2024-02-14T13:02:50;2.95;;;1.27;;
75787;SDS011;64406;50.024;14.492;2024-02-14T13:05:16;3.60;;;1.25;;
75787;SDS011;64406;50.024;14.492;2024-02-14T13:07:42;2.70;;;1.30;;
75787;SDS011;64406;50.024;14.492;2024-02-14T13:10:08;2.30;;;1.27;;
75787;SDS011;64406;50.024;14.492;2024-02-14T13:12:37;2.58;;;1.30;;
75787;SDS011;64406;50.024;14.492;2024-02-14T13:15:04;4.65;;;1.30;;
75787;SDS011;64406;50.024;14.492;2024-02-14T13:17:30;4.32;;;1.80;;
75787;SDS011;64406;50.024;14.492;2024-02-14T13:19:56;2.22;;;1.27;;
75787;SDS011;64406;50.024;14.492;2024-02-14T13:22:22;1.98;;;1.40;;
75787;SDS011;64406;50.024;14.492;2024-02-14T13:24:48;2.83;;;1.67;;
75787;SDS011;64406;50.024;14.492;2024-02-14T13:27:14;2.25;;;1.38;;
75787;SDS011;64406;50.024;14.492;2024-02-14T13:29:40;2.88;;;1.40;;
75787;SDS011;64406;50.024;14.492;2024-02-14T13:32:06;3.58;;;1.60;;
75787;SDS011;64406;50.024;14.492;2024-02-14T13:34:32;3.30;;;1.83;;
75787;SDS011;64406;50.024;14.492;2024-02-14T13:36:59;3.70;;;1.67;;
75787;SDS011;64406;50.024;14.492;2024-02-14T13:39:25;1.67;;;1.20;;
75787;SDS011;64406;50.024;14.492;2024-02-14T13:41:50;2.88;;;1.50;;
75787;SDS011;64406;50.024;14.492;2024-02-14T13:44:17;3.58;;;1.48;;
75787;SDS011;64406;50.024;14.492;2024-02-14T13:46:44;6.70;;;1.88;;
75787;SDS011;64406;50.024;14.492;2024-02-14T13:49:15;2.33;;;1.30;;
75787;SDS011;64406;50.024;14.492;2024-02-14T13:51:47;3.42;;;1.48;;
75787;SDS011;64406;50.024;14.492;2024-02-14T13:54:19;2.70;;;1.50;;
75787;SDS011;64406;50.024;14.492;2024-02-14T13:56:45;6.45;;;1.45;;
75787;SDS011;64406;50.024;14.492;2024-02-14T13:59:13;3.80;;;1.60;;
75787;SDS011;64406;50.024;14.492;2024-02-14T14:01:39;2.20;;;1.17;;
75787;SDS011;64406;50.024;14.492;2024-02-14T14:04:04;5.53;;;1.38;;
75787;SDS011;64406;50.024;14.492;2024-02-14T14:06:30;1.98;;;1.30;;
75787;SDS011;64406;50.024;14.492;2024-02-14T14:08:56;4.32;;;1.40;;
75787;SDS011;64406;50.024;14.492;2024-02-14T14:11:21;1.88;;;1.42;;
75787;SDS011;64406;50.024;14.492;2024-02-14T14:13:47;2.35;;;1.38;;
75787;SDS011;64406;50.024;14.492;2024-02-14T14:16:13;2.08;;;1.40;;
75787;SDS011;64406;50.024;14.492;2024-02-14T14:18:38;2.08;;;1.60;;
75787;SDS011;64406;50.024;14.492;2024-02-14T14:21:04;3.53;;;1.38;;
75787;SDS011;64406;50.024;14.492;2024-02-14T14:23:30;4.10;;;1.42;;
75787;SDS011;64406;50.024;14.492;2024-02-14T14:25:56;3.70;;;1.13;;
75787;SDS011;64406;50.024;14.492;2024-02-14T14:28:21;4.53;;;1.30;;